Weerstation Zoersel Live Webcam Weerstation Zoersel Live Webcam


sateliet wolkenradar  


Doneren

CBI


onweer radar meer informatie blitzortung!


regen radar  rain snow radar


Enkele sfeerfotootjes...  

Het weer levert geen direct gevaar op.    Er zijn geen waarschuwingen afgegeven.

metar rapporten vliegvelden

   
EBAW - Antwerp
gewijzigd: 12-12-2018 15:50
licht bewolkt  
licht bewolkt  
   wind: oosten 14,8 km/h
wind: oosten 14,8 km/h
temperatuur: 4°C
voelt als: 1°C
dauwpunt: 2°C
vochtigheid: 87%
barometer: 1024 hPa
bewolking: licht bewolkt
zicht: meer dan 10 km
bewolking: licht bewolkt 1500 ft
EBAW 121450Z 09008KT 9999 FEW015 04/02 Q1024 NOSIG
EBLG - Li├Ęge
gewijzigd: 12-12-2018 15:50
nevel, grotendeels bewolkt  
nevel, grotendeels bewolkt  
   wind: ono 9,3 km/h
wind: ono 9,3 km/h
temperatuur: 1°C
voelt als: -2°C
dauwpunt: 1°C
vochtigheid: 100%
barometer: 1023 hPa
bewolking: grotendeels bewolkt
zicht: 2 km
bewolking: licht bewolkt 200 ft,
grotendeels bewolkt 500 ft
EBLG 121450Z 06005KT 020V090 2100 BR FEW002 BKN005 01/01 Q1023 BECMG SCT005
EBCV - Mons/Bergen
gewijzigd: 12-12-2018 15:55
helder  
helder  
   wind: oosten 9,3 km/h
wind: oosten 9,3 km/h
temperatuur: 4°C
voelt als: 2°C
dauwpunt: 1°C
vochtigheid: 81%
barometer: 1023 hPa
bewolking: helder
zicht: meer dan 10 km
bewolking: helder
EBCV 121455Z AUTO 08005KT 9999 NCD 04/01 Q1023 BLU
EHBK - Maastricht
gewijzigd: 12-12-2018 15:55
bewolking  
bewolking  
   wind: no 9,3 km/h
wind: no 9,3 km/h
temperatuur: 3°C
voelt als: 1°C
dauwpunt: 1°C
vochtigheid: 87%
barometer: 1024 hPa
bewolking: bewolking
zicht: meer dan 10 km
bewolking: bewolking 3200 ft
EHBK 121455Z AUTO 05005KT 350V070 9999 OVC032 03/01 Q1024 NOSIG
ELLX - Luxemburg
gewijzigd: 12-12-2018 15:50
gedeeltelijk bewolkt  
gedeeltelijk bewolkt  
   wind: ono 13 km/h
wind: ono 13 km/h
temperatuur: 3°C
voelt als: -1°C
dauwpunt: -1°C
vochtigheid: 75%
barometer: 1021 hPa
bewolking: gedeeltelijk bewolkt
zicht: meer dan 10 km
bewolking: gedeeltelijk bewolkt 3500 ft
ELLX 121450Z 06007KT 9999 SCT035 03/M01 Q1021 NOSIG
EBOS - Oostende
gewijzigd: 12-12-2018 15:50
licht bewolkt  
licht bewolkt  
   wind: oosten 11,1 km/h
wind: oosten 11,1 km/h
temperatuur: 5°C
voelt als: 2°C
dauwpunt: 0°C
vochtigheid: 70%
barometer: 1024 hPa
bewolking: licht bewolkt
zicht: meer dan 10 km
bewolking: licht bewolkt 2000 ft
EBOS 121450Z 10006KT 9999 FEW020 05/00 Q1024 NOSIG

script ontwikkeld door  Saratoga-weather.org aangepast voor de template door  Weerstation Leuven